sensor_id;sensor_type;location;lat;lon;timestamp;temperature;humidity
14357;DHT22;7262;48.764;9.166;2023-04-15T00:00:26;5.10;99.90
14357;DHT22;7262;48.764;9.166;2023-04-15T00:02:53;5.10;99.90
14357;DHT22;7262;48.764;9.166;2023-04-15T00:05:21;5.10;99.90
14357;DHT22;7262;48.764;9.166;2023-04-15T00:07:48;5.10;99.90
14357;DHT22;7262;48.764;9.166;2023-04-15T00:10:16;5.10;99.90
14357;DHT22;7262;48.764;9.166;2023-04-15T00:12:44;5.00;99.90
14357;DHT22;7262;48.764;9.166;2023-04-15T00:15:10;4.90;99.90
14357;DHT22;7262;48.764;9.166;2023-04-15T00:17:37;4.80;99.90
14357;DHT22;7262;48.764;9.166;2023-04-15T00:20:06;4.70;99.90
14357;DHT22;7262;48.764;9.166;2023-04-15T00:22:34;4.70;99.90
14357;DHT22;7262;48.764;9.166;2023-04-15T00:25:01;4.70;99.90
14357;DHT22;7262;48.764;9.166;2023-04-15T00:27:28;4.70;99.90
14357;DHT22;7262;48.764;9.166;2023-04-15T00:29:55;4.70;99.90
14357;DHT22;7262;48.764;9.166;2023-04-15T00:32:23;4.80;99.90
14357;DHT22;7262;48.764;9.166;2023-04-15T00:34:50;4.80;99.90
14357;DHT22;7262;48.764;9.166;2023-04-15T00:37:17;4.80;99.90
14357;DHT22;7262;48.764;9.166;2023-04-15T00:39:50;4.70;99.90
14357;DHT22;7262;48.764;9.166;2023-04-15T00:42:18;4.70;99.90
14357;DHT22;7262;48.764;9.166;2023-04-15T00:44:46;4.70;99.90
14357;DHT22;7262;48.764;9.166;2023-04-15T00:47:13;4.60;99.90
14357;DHT22;7262;48.764;9.166;2023-04-15T00:49:40;4.60;99.90
14357;DHT22;7262;48.764;9.166;2023-04-15T00:52:07;4.60;99.90
14357;DHT22;7262;48.764;9.166;2023-04-15T00:54:34;4.50;99.90
14357;DHT22;7262;48.764;9.166;2023-04-15T00:57:06;4.50;99.90
14357;DHT22;7262;48.764;9.166;2023-04-15T00:59:34;4.50;99.90
14357;DHT22;7262;48.764;9.166;2023-04-15T01:07:17;4.40;99.90
14357;DHT22;7262;48.764;9.166;2023-04-15T01:09:45;4.30;99.90
14357;DHT22;7262;48.764;9.166;2023-04-15T01:17:46;4.30;99.90
14357;DHT22;7262;48.764;9.166;2023-04-15T01:23:04;4.30;99.90
14357;DHT22;7262;48.764;9.166;2023-04-15T01:25:35;4.30;99.90
14357;DHT22;7262;48.764;9.166;2023-04-15T01:31:03;4.30;99.90
14357;DHT22;7262;48.764;9.166;2023-04-15T01:33:43;4.30;99.90
14357;DHT22;7262;48.764;9.166;2023-04-15T01:36:25;4.30;99.90
14357;DHT22;7262;48.764;9.166;2023-04-15T01:38:58;4.30;99.90
14357;DHT22;7262;48.764;9.166;2023-04-15T01:44:27;4.10;99.90
14357;DHT22;7262;48.764;9.166;2023-04-15T01:47:11;4.00;99.90
14357;DHT22;7262;48.764;9.166;2023-04-15T01:49:41;4.10;99.90
14357;DHT22;7262;48.764;9.166;2023-04-15T01:52:23;4.00;99.90
14357;DHT22;7262;48.764;9.166;2023-04-15T01:55:16;4.00;99.90
14357;DHT22;7262;48.764;9.166;2023-04-15T01:58:10;4.00;99.90
14357;DHT22;7262;48.764;9.166;2023-04-15T02:12:06;3.90;99.90
14357;DHT22;7262;48.764;9.166;2023-04-15T02:14:39;3.90;99.90
14357;DHT22;7262;48.764;9.166;2023-04-15T02:17:19;3.90;99.90
14357;DHT22;7262;48.764;9.166;2023-04-15T02:19:57;3.90;99.90
14357;DHT22;7262;48.764;9.166;2023-04-15T02:22:31;3.90;99.90
14357;DHT22;7262;48.764;9.166;2023-04-15T02:25:07;3.90;99.90
14357;DHT22;7262;48.764;9.166;2023-04-15T02:27:45;3.90;99.90
14357;DHT22;7262;48.764;9.166;2023-04-15T02:30:17;3.80;99.90
14357;DHT22;7262;48.764;9.166;2023-04-15T02:32:59;3.80;99.90
14357;DHT22;7262;48.764;9.166;2023-04-15T02:35:40;3.80;99.90
14357;DHT22;7262;48.764;9.166;2023-04-15T02:38:12;3.80;99.90
14357;DHT22;7262;48.764;9.166;2023-04-15T02:41:00;3.70;99.90
14357;DHT22;7262;48.764;9.166;2023-04-15T02:46:15;3.60;99.90
14357;DHT22;7262;48.764;9.166;2023-04-15T02:48:49;3.50;99.90
14357;DHT22;7262;48.764;9.166;2023-04-15T02:51:21;3.50;99.90
14357;DHT22;7262;48.764;9.166;2023-04-15T02:53:59;3.50;99.90
14357;DHT22;7262;48.764;9.166;2023-04-15T02:56:26;3.50;99.90
14357;DHT22;7262;48.764;9.166;2023-04-15T02:58:54;3.40;99.90
14357;DHT22;7262;48.764;9.166;2023-04-15T03:01:35;3.40;99.90
14357;DHT22;7262;48.764;9.166;2023-04-15T03:07:10;3.40;99.90
14357;DHT22;7262;48.764;9.166;2023-04-15T03:09:37;3.30;99.90
14357;DHT22;7262;48.764;9.166;2023-04-15T03:46:08;3.20;99.90
14357;DHT22;7262;48.764;9.166;2023-04-15T03:48:41;3.30;99.90
14357;DHT22;7262;48.764;9.166;2023-04-15T03:51:19;3.30;99.90
14357;DHT22;7262;48.764;9.166;2023-04-15T03:53:58;3.30;99.90
14357;DHT22;7262;48.764;9.166;2023-04-15T03:56:37;3.40;99.90
14357;DHT22;7262;48.764;9.166;2023-04-15T03:59:28;3.40;99.90
14357;DHT22;7262;48.764;9.166;2023-04-15T04:02:11;3.40;99.90
14357;DHT22;7262;48.764;9.166;2023-04-15T04:04:44;3.40;99.90
14357;DHT22;7262;48.764;9.166;2023-04-15T04:07:18;3.30;99.90
14357;DHT22;7262;48.764;9.166;2023-04-15T04:10:05;3.30;99.90
14357;DHT22;7262;48.764;9.166;2023-04-15T04:12:43;3.30;99.90
14357;DHT22;7262;48.764;9.166;2023-04-15T04:15:17;3.30;99.90
14357;DHT22;7262;48.764;9.166;2023-04-15T04:20:29;3.40;99.90
14357;DHT22;7262;48.764;9.166;2023-04-15T04:23:19;3.40;99.90
14357;DHT22;7262;48.764;9.166;2023-04-15T04:26:10;3.40;99.90
14357;DHT22;7262;48.764;9.166;2023-04-15T04:28:49;3.30;99.90
14357;DHT22;7262;48.764;9.166;2023-04-15T04:31:34;3.30;99.90
14357;DHT22;7262;48.764;9.166;2023-04-15T04:34:25;3.20;99.90
14357;DHT22;7262;48.764;9.166;2023-04-15T04:48:27;3.20;99.90
14357;DHT22;7262;48.764;9.166;2023-04-15T04:51:11;3.20;99.90
14357;DHT22;7262;48.764;9.166;2023-04-15T04:54:10;3.20;99.90
14357;DHT22;7262;48.764;9.166;2023-04-15T04:56:56;3.20;99.90
14357;DHT22;7262;48.764;9.166;2023-04-15T04:59:42;3.20;99.90
14357;DHT22;7262;48.764;9.166;2023-04-15T05:02:27;3.10;99.90
14357;DHT22;7262;48.764;9.166;2023-04-15T05:11:21;3.30;99.90
14357;DHT22;7262;48.764;9.166;2023-04-15T05:17:34;3.20;99.90
14357;DHT22;7262;48.764;9.166;2023-04-15T05:21:02;3.20;99.90
14357;DHT22;7262;48.764;9.166;2023-04-15T05:23:07;3.20;99.90
14357;DHT22;7262;48.764;9.166;2023-04-15T05:26:17;3.40;99.90
14357;DHT22;7262;48.764;9.166;2023-04-15T05:37:55;3.90;99.90
14357;DHT22;7262;48.764;9.166;2023-04-15T05:40:36;4.40;99.90
14357;DHT22;7262;48.764;9.166;2023-04-15T06:16:31;13.90;99.90
14357;DHT22;7262;48.764;9.166;2023-04-15T06:32:58;13.20;99.90
14357;DHT22;7262;48.764;9.166;2023-04-15T06:35:59;13.30;99.90
14357;DHT22;7262;48.764;9.166;2023-04-15T06:38:56;13.20;99.90
14357;DHT22;7262;48.764;9.166;2023-04-15T06:45:05;14.20;99.90
14357;DHT22;7262;48.764;9.166;2023-04-15T06:47:57;13.00;99.90
14357;DHT22;7262;48.764;9.166;2023-04-15T06:50:49;12.20;99.90
14357;DHT22;7262;48.764;9.166;2023-04-15T06:53:25;11.80;99.90
14357;DHT22;7262;48.764;9.166;2023-04-15T06:56:02;11.60;99.90
14357;DHT22;7262;48.764;9.166;2023-04-15T06:59:11;11.60;99.90
14357;DHT22;7262;48.764;9.166;2023-04-15T07:02:00;11.50;99.90
14357;DHT22;7262;48.764;9.166;2023-04-15T07:17:19;15.80;99.90
14357;DHT22;7262;48.764;9.166;2023-04-15T07:19:50;17.30;99.90
14357;DHT22;7262;48.764;9.166;2023-04-15T07:25:40;18.60;99.90
14357;DHT22;7262;48.764;9.166;2023-04-15T07:28:24;20.70;99.90
14357;DHT22;7262;48.764;9.166;2023-04-15T07:37:18;21.40;99.90
14357;DHT22;7262;48.764;9.166;2023-04-15T07:40:17;20.50;99.90
14357;DHT22;7262;48.764;9.166;2023-04-15T07:43:11;19.20;99.90
14357;DHT22;7262;48.764;9.166;2023-04-15T07:46:02;18.10;99.90
14357;DHT22;7262;48.764;9.166;2023-04-15T07:49:08;16.50;99.90
14357;DHT22;7262;48.764;9.166;2023-04-15T07:51:36;14.90;99.90
14357;DHT22;7262;48.764;9.166;2023-04-15T08:06:38;12.10;99.90
14357;DHT22;7262;48.764;9.166;2023-04-15T08:09:26;12.00;99.90
14357;DHT22;7262;48.764;9.166;2023-04-15T08:12:00;13.10;99.90
14357;DHT22;7262;48.764;9.166;2023-04-15T08:14:53;14.10;99.90
14357;DHT22;7262;48.764;9.166;2023-04-15T08:17:58;15.20;99.90
14357;DHT22;7262;48.764;9.166;2023-04-15T08:30:08;18.50;99.90
14357;DHT22;7262;48.764;9.166;2023-04-15T08:33:12;18.60;99.90
14357;DHT22;7262;48.764;9.166;2023-04-15T08:36:02;18.00;99.90
14357;DHT22;7262;48.764;9.166;2023-04-15T10:14:35;15.50;99.90
14357;DHT22;7262;48.764;9.166;2023-04-15T10:29:26;16.00;99.90
14357;DHT22;7262;48.764;9.166;2023-04-15T11:33:44;18.30;99.90
14357;DHT22;7262;48.764;9.166;2023-04-15T11:36:41;19.50;99.90
14357;DHT22;7262;48.764;9.166;2023-04-15T11:39:30;20.10;99.10
14357;DHT22;7262;48.764;9.166;2023-04-15T11:42:17;19.90;98.70
14357;DHT22;7262;48.764;9.166;2023-04-15T12:02:28;14.90;99.90
14357;DHT22;7262;48.764;9.166;2023-04-15T12:05:16;14.70;99.90
14357;DHT22;7262;48.764;9.166;2023-04-15T12:11:29;15.60;99.90
14357;DHT22;7262;48.764;9.166;2023-04-15T12:28:50;16.30;99.90
14357;DHT22;7262;48.764;9.166;2023-04-15T12:31:52;16.10;99.90
14357;DHT22;7262;48.764;9.166;2023-04-15T12:39:47;15.40;99.90
14357;DHT22;7262;48.764;9.166;2023-04-15T12:42:30;14.10;99.90
14357;DHT22;7262;48.764;9.166;2023-04-15T12:56:24;11.80;99.90
14357;DHT22;7262;48.764;9.166;2023-04-15T12:59:15;11.60;99.90
14357;DHT22;7262;48.764;9.166;2023-04-15T13:11:00;12.20;99.90
14357;DHT22;7262;48.764;9.166;2023-04-15T14:34:07;13.20;99.90
14357;DHT22;7262;48.764;9.166;2023-04-15T15:58:38;11.70;99.90
